createdAt,value
2018-11-06T00:01:20.100Z,33.47
2018-11-06T00:05:23.906Z,36.77
2018-11-06T00:09:27.744Z,37.43
2018-11-06T00:13:31.484Z,35.37
2018-11-06T00:17:35.265Z,37.33
2018-11-06T00:21:39.154Z,38.10
2018-11-06T00:25:42.970Z,31.23
2018-11-06T00:29:46.734Z,35.47
2018-11-06T00:33:50.530Z,36.30
2018-11-06T00:37:54.315Z,39.83
2018-11-06T00:41:58.084Z,36.77
2018-11-06T00:46:01.873Z,40.67
2018-11-06T00:50:06.597Z,45.50
2018-11-06T00:54:10.342Z,35.27
2018-11-06T00:58:14.104Z,38.97
2018-11-06T01:02:17.940Z,39.50
2018-11-06T01:06:21.824Z,39.90
2018-11-06T01:10:25.626Z,42.07
2018-11-06T01:14:29.417Z,38.53
2018-11-06T01:18:33.133Z,42.03
2018-11-06T01:22:36.970Z,36.00
2018-11-06T01:26:40.724Z,43.17
2018-11-06T01:30:45.665Z,39.03
2018-11-06T01:34:49.380Z,41.63
2018-11-06T01:38:53.193Z,37.63
2018-11-06T01:42:56.963Z,36.03
2018-11-06T01:47:00.671Z,38.53
2018-11-06T01:51:06.131Z,36.00
2018-11-06T01:55:11.138Z,38.93
2018-11-06T01:59:14.861Z,41.00
2018-11-06T02:03:18.579Z,37.03
2018-11-06T02:07:22.353Z,37.80
2018-11-06T02:11:26.127Z,36.73
2018-11-06T02:15:29.910Z,38.00
2018-11-06T02:19:34.018Z,38.17
2018-11-06T02:23:37.779Z,37.93
2018-11-06T02:27:41.511Z,42.07
2018-11-06T02:31:45.245Z,38.10
2018-11-06T02:35:49.002Z,43.63
2018-11-06T02:39:52.787Z,35.77
2018-11-06T02:43:56.503Z,40.93
2018-11-06T02:48:00.244Z,38.50
2018-11-06T02:52:03.984Z,34.60
2018-11-06T02:56:08.351Z,33.07
2018-11-06T03:00:14.701Z,37.27
2018-11-06T03:04:18.451Z,39.57
2018-11-06T03:08:22.214Z,36.60
2018-11-06T03:12:25.958Z,34.27
2018-11-06T03:16:29.724Z,39.03
2018-11-06T03:20:33.478Z,39.60
2018-11-06T03:24:37.220Z,37.17
2018-11-06T03:28:40.979Z,38.10
2018-11-06T03:32:45.022Z,38.23
2018-11-06T03:36:48.814Z,42.60
2018-11-06T03:40:52.583Z,37.13
2018-11-06T03:44:56.285Z,41.63
2018-11-06T03:49:00.296Z,41.77
2018-11-06T03:53:04.405Z,41.57
2018-11-06T03:57:08.135Z,34.97
2018-11-06T04:01:11.912Z,40.30
2018-11-06T04:05:15.628Z,34.33
2018-11-06T04:09:19.371Z,37.90
2018-11-06T04:13:23.119Z,32.77
2018-11-06T04:17:26.546Z,37.00
2018-11-06T04:21:45.493Z,33.83
2018-11-06T04:25:49.028Z,38.67
2018-11-06T04:29:52.485Z,32.93
2018-11-06T04:33:55.994Z,34.30
2018-11-06T04:37:59.503Z,32.67
2018-11-06T04:42:04.157Z,37.10
2018-11-06T04:46:07.598Z,33.33
2018-11-06T04:50:11.821Z,31.80
2018-11-06T04:54:15.370Z,37.07
2018-11-06T04:58:18.953Z,32.23
2018-11-06T05:02:22.610Z,38.97
2018-11-06T05:06:26.191Z,34.40
2018-11-06T05:10:29.875Z,37.50
2018-11-06T05:14:33.720Z,36.10
2018-11-06T05:18:37.421Z,29.20
2018-11-06T05:22:41.263Z,39.73
2018-11-06T05:26:45.041Z,37.17
2018-11-06T05:30:48.705Z,38.03
2018-11-06T05:34:52.892Z,37.53
2018-11-06T05:38:56.660Z,39.27
2018-11-06T05:43:00.345Z,38.00
2018-11-06T05:47:04.113Z,37.20
2018-11-06T05:51:07.601Z,34.77
2018-11-06T05:55:11.246Z,38.60
2018-11-06T05:59:14.979Z,36.20
2018-11-06T06:03:18.600Z,33.50
2018-11-06T06:07:22.667Z,35.53
2018-11-06T06:11:26.301Z,37.57
2018-11-06T06:15:29.998Z,38.17
2018-11-06T06:19:33.607Z,32.37
2018-11-06T06:23:37.367Z,39.07
2018-11-06T06:27:40.942Z,37.50
2018-11-06T06:31:44.581Z,41.23
2018-11-06T06:35:48.092Z,33.60
2018-11-06T06:39:51.741Z,41.60
2018-11-06T06:43:55.365Z,40.90
2018-11-06T06:47:58.940Z,37.70
2018-11-06T06:52:02.583Z,38.13
2018-11-06T06:56:06.672Z,38.90
2018-11-06T07:00:13.357Z,38.13
2018-11-06T07:04:18.298Z,36.57
2018-11-06T07:08:21.874Z,37.27
2018-11-06T07:12:25.364Z,40.60
2018-11-06T07:16:28.978Z,40.27
2018-11-06T07:20:32.690Z,39.50
2018-11-06T07:24:36.256Z,41.07
2018-11-06T07:28:39.857Z,38.87
2018-11-06T07:32:43.978Z,42.53
2018-11-06T07:36:47.491Z,41.70
2018-11-06T07:40:51.190Z,41.13
2018-11-06T07:44:54.885Z,44.33
2018-11-06T07:48:58.690Z,42.77
2018-11-06T07:53:02.356Z,41.40
2018-11-06T07:57:06.339Z,42.83
2018-11-06T08:01:10.054Z,47.20
2018-11-06T08:05:14.061Z,37.00
2018-11-06T08:09:17.739Z,44.07
2018-11-06T08:13:21.385Z,38.97
2018-11-06T08:17:25.030Z,44.43
2018-11-06T08:21:28.643Z,40.40
2018-11-06T08:25:32.957Z,38.30
2018-11-06T08:29:36.957Z,38.17
2018-11-06T08:33:40.954Z,41.77
2018-11-06T08:37:45.089Z,38.10
2018-11-06T08:41:48.812Z,41.53
2018-11-06T08:45:52.959Z,39.73
2018-11-06T08:49:56.949Z,41.20
2018-11-06T08:54:00.864Z,36.93
2018-11-06T08:58:04.789Z,39.87
2018-11-06T09:02:08.700Z,40.77
2018-11-06T09:06:12.619Z,39.17
2018-11-06T09:10:17.045Z,36.00
2018-11-06T09:14:20.973Z,44.00
2018-11-06T09:18:24.877Z,43.43
2018-11-06T09:22:28.742Z,37.10
2018-11-06T09:26:32.726Z,41.37
2018-11-06T09:30:36.602Z,42.70
2018-11-06T09:34:41.410Z,44.47
2018-11-06T09:38:45.249Z,43.03
2018-11-06T09:42:49.047Z,36.97
2018-11-06T09:46:53.261Z,38.63
2018-11-06T09:50:57.160Z,41.57
2018-11-06T09:55:01.178Z,37.40
2018-11-06T09:59:05.085Z,34.90
2018-11-06T10:03:09.002Z,39.07
2018-11-06T10:07:13.287Z,36.60
2018-11-06T10:11:16.922Z,37.03
2018-11-06T10:15:21.714Z,37.07
2018-11-06T10:19:25.775Z,35.27
2018-11-06T10:23:29.703Z,39.80
2018-11-06T10:27:33.782Z,34.67
2018-11-06T10:31:39.347Z,42.97
2018-11-06T10:36:00.591Z,34.03
2018-11-06T10:40:05.308Z,40.90
2018-11-06T10:44:11.354Z,36.70
2018-11-06T10:48:16.921Z,33.53
2018-11-06T10:52:21.511Z,38.57
2018-11-06T10:56:26.491Z,32.43
2018-11-06T11:00:35.698Z,33.33
2018-11-06T11:04:46.603Z,36.43
2018-11-06T11:08:59.662Z,35.83
2018-11-06T11:17:28.183Z,31.47
2018-11-06T11:30:29.159Z,37.93
2018-11-06T11:39:17.296Z,38.43
2018-11-06T11:56:58.386Z,35.93
2018-11-06T13:05:44.665Z,31.37
2018-11-06T13:33:10.250Z,29.33
2018-11-06T13:37:37.043Z,26.63
2018-11-06T14:13:40.977Z,24.77
2018-11-06T14:17:44.593Z,33.53
2018-11-06T14:21:48.446Z,24.63
2018-11-06T14:25:52.015Z,23.77
2018-11-06T14:29:55.601Z,23.87
2018-11-06T14:33:59.067Z,25.20
2018-11-06T14:38:02.765Z,25.60
2018-11-06T14:42:06.524Z,30.33
2018-11-06T14:46:10.047Z,39.67
2018-11-06T14:50:13.880Z,33.80
2018-11-06T14:54:17.549Z,28.10
2018-11-06T14:58:21.087Z,25.30
2018-11-06T15:02:24.950Z,20.97
2018-11-06T15:06:28.501Z,23.10
2018-11-06T15:10:32.331Z,24.43
2018-11-06T15:14:35.896Z,22.07
2018-11-06T15:18:39.935Z,22.23
2018-11-06T15:22:44.068Z,19.70
2018-11-06T15:26:47.862Z,25.30
2018-11-06T15:30:51.623Z,20.63
2018-11-06T15:34:55.225Z,20.87
2018-11-06T15:38:58.871Z,19.37
2018-11-06T15:43:02.453Z,22.50
2018-11-06T15:47:06.093Z,20.87
2018-11-06T15:51:09.859Z,19.23
2018-11-06T15:55:15.631Z,20.63
2018-11-06T15:59:19.298Z,21.37
2018-11-06T16:03:22.887Z,19.93
2018-11-06T16:07:26.551Z,20.13
2018-11-06T16:11:30.229Z,18.30
2018-11-06T16:15:33.876Z,20.13
2018-11-06T16:19:37.366Z,22.20
2018-11-06T16:23:41.183Z,19.47
2018-11-06T16:27:45.119Z,17.93
2018-11-06T16:31:48.777Z,19.00
2018-11-06T16:35:52.343Z,19.80
2018-11-06T16:39:56.061Z,19.57
2018-11-06T16:43:59.601Z,19.47
2018-11-06T16:48:03.274Z,23.23
2018-11-06T16:52:06.789Z,20.43
2018-11-06T16:56:10.377Z,19.87
2018-11-06T17:00:15.486Z,19.90
2018-11-06T17:04:18.933Z,25.37
2018-11-06T17:08:22.474Z,24.47
2018-11-06T17:12:26.022Z,24.10
2018-11-06T17:16:29.684Z,23.93
2018-11-06T17:20:33.284Z,21.27
2018-11-06T17:24:36.822Z,21.97
2018-11-06T17:28:40.388Z,22.23
2018-11-06T17:32:44.961Z,32.20
2018-11-06T17:36:48.670Z,27.80
2018-11-06T17:40:52.232Z,25.03
2018-11-06T17:44:55.817Z,30.43
2018-11-06T17:48:59.340Z,23.13
2018-11-06T17:53:02.896Z,23.80
2018-11-06T17:57:06.450Z,25.90
2018-11-06T18:01:10.014Z,29.77
2018-11-06T18:05:14.626Z,24.03
2018-11-06T18:09:18.226Z,24.23
2018-11-06T18:13:21.875Z,25.43
2018-11-06T18:17:25.477Z,21.57
2018-11-06T18:21:29.026Z,22.23
2018-11-06T18:25:32.704Z,23.17
2018-11-06T18:29:36.179Z,20.77
2018-11-06T18:33:39.686Z,21.47
2018-11-06T18:37:43.398Z,22.60
2018-11-06T18:41:46.966Z,23.03
2018-11-06T18:45:50.787Z,21.23
2018-11-06T18:49:54.506Z,22.60
2018-11-06T18:53:57.944Z,23.47
2018-11-06T18:58:01.680Z,23.37
2018-11-06T19:02:05.551Z,20.30
2018-11-06T19:06:09.186Z,22.63
2018-11-06T19:10:13.774Z,23.47
2018-11-06T19:14:17.333Z,22.40
2018-11-06T19:18:20.833Z,25.10
2018-11-06T19:22:24.421Z,21.47
2018-11-06T19:26:27.998Z,21.20
2018-11-06T19:30:31.671Z,21.87
2018-11-06T19:34:35.300Z,22.67
2018-11-06T19:38:38.801Z,21.70
2018-11-06T19:42:43.119Z,20.43
2018-11-06T19:46:47.073Z,22.23
2018-11-06T19:50:50.683Z,26.67
2018-11-06T19:54:54.225Z,25.80
2018-11-06T19:58:58.444Z,25.37
2018-11-06T20:03:02.453Z,23.67
2018-11-06T20:07:09.003Z,23.40
2018-11-06T20:11:12.920Z,25.77
2018-11-06T20:15:17.302Z,21.93
2018-11-06T20:19:21.305Z,21.10
2018-11-06T20:23:25.105Z,21.87
2018-11-06T20:27:28.826Z,24.17
2018-11-06T20:31:32.658Z,22.77
2018-11-06T20:35:36.516Z,22.10
2018-11-06T20:39:40.444Z,25.27
2018-11-06T20:43:43.933Z,19.80
2018-11-06T20:47:47.498Z,23.70
2018-11-06T20:51:51.144Z,21.33
2018-11-06T20:55:54.708Z,23.03
2018-11-06T20:59:58.440Z,20.73
2018-11-06T21:04:06.477Z,23.33
2018-11-06T21:08:10.384Z,23.43
2018-11-06T21:12:14.403Z,25.70
2018-11-06T21:16:18.977Z,21.83
2018-11-06T21:20:23.861Z,23.23
2018-11-06T21:24:27.721Z,24.07
2018-11-06T21:28:31.558Z,29.93
2018-11-06T21:32:35.399Z,24.07
2018-11-06T21:36:40.008Z,24.70
2018-11-06T21:40:43.815Z,27.30
2018-11-06T21:44:47.612Z,24.97
2018-11-06T21:48:51.903Z,26.50
2018-11-06T21:52:55.751Z,28.70
2018-11-06T21:56:59.862Z,26.57
2018-11-06T22:01:03.899Z,27.07
2018-11-06T22:05:09.211Z,26.83
2018-11-06T22:09:12.948Z,25.93
2018-11-06T22:13:16.752Z,26.50
2018-11-06T22:17:20.523Z,29.30
2018-11-06T22:21:24.580Z,25.90
2018-11-06T22:25:28.707Z,28.57
2018-11-06T22:29:32.525Z,27.53
2018-11-06T22:33:36.326Z,25.67
2018-11-06T22:37:40.106Z,27.03
2018-11-06T22:41:43.908Z,28.63
2018-11-06T22:45:47.752Z,25.53
2018-11-06T22:49:51.549Z,29.50
2018-11-06T22:53:55.322Z,25.63
2018-11-06T22:57:59.807Z,26.17
2018-11-06T23:02:03.615Z,28.13
2018-11-06T23:06:07.867Z,28.30
2018-11-06T23:10:12.002Z,27.13
2018-11-06T23:14:15.718Z,27.60
2018-11-06T23:18:19.744Z,28.87
2018-11-06T23:22:23.518Z,24.60
2018-11-06T23:26:27.310Z,26.57
2018-11-06T23:30:31.071Z,29.63
2018-11-06T23:34:34.822Z,26.40
2018-11-06T23:38:38.973Z,28.50
2018-11-06T23:42:42.624Z,27.30
2018-11-06T23:46:46.350Z,27.37
2018-11-06T23:50:50.033Z,22.67
2018-11-06T23:54:53.615Z,24.23
2018-11-06T23:59:04.144Z,27.87
